Página principal
METAR-TAF:

METAR-TAF

Aeroportos :

Gran Canária, Espanha

Aeroporto de Gran Canária

latitude: 27-56N, longitude: 015-23W, altura: 23 m

Observação actual do tempo

O boletim foi feito há 35 minutos, às 08:00 UTC
Vento 12 kt de norte
Temperatura 22°C
Humidade 73%
Pressão 1016 hPa
Visibilidade 10 km ou mais
Poucas nuvensa uma altura de 2500 ft

METAR: GCLP 200800Z 36012KT 9999 FEW025 22/17 Q1016 NOSIG

Hora: 09:35 (08:35 UTC)

Previsão

O boletim foi feito há 6 horas e 35 minutos, às 02:00 UTC
Previsão válida de 20 às 03 UTC a 21 às 03 UTC
Vento 16 kt de norte
Visibilidade 10 km ou mais
Nuvens dispersasa uma altura de 2500 ft

TAF: GCLP 200200Z 2003/2103 36016KT 9999 SCT025 TX27/2014Z TN22/2003Z

Observações e previsões do tempo de mais de 4000 aeroportos (mensagens METAR e TAF).

As estações disponíveis são os pontos amarelos e vermelhos sobre o mapa.

Mova o rato sobre o mapa para ver o nome da estação.

Depois clique no ponto para visualizar as observações e previsões meteorológicas.

Para alterar o mapa : clique nos botões verdes com uma cruz preta para aumentar o zoom; no botão verde com uma pitada de zoom; ou nas setas verdes para mapas adjacentes.


METAR-TAF: